createdAt,value
2018-06-11T00:00:00.433Z,14.70
2018-06-11T00:01:04.091Z,14.70
2018-06-11T00:02:07.705Z,14.70
2018-06-11T00:03:11.310Z,14.70
2018-06-11T00:04:14.869Z,14.70
2018-06-11T00:05:18.537Z,14.70
2018-06-11T00:06:22.233Z,14.70
2018-06-11T00:07:25.821Z,14.70
2018-06-11T00:08:29.346Z,14.70
2018-06-11T00:09:32.878Z,14.70
2018-06-11T00:10:36.511Z,14.60
2018-06-11T00:11:40.053Z,14.60
2018-06-11T00:12:43.596Z,14.60
2018-06-11T00:13:47.181Z,14.70
2018-06-11T00:14:50.728Z,14.60
2018-06-11T00:15:54.366Z,14.60
2018-06-11T00:16:57.967Z,14.70
2018-06-11T00:18:01.522Z,14.70
2018-06-11T00:19:05.205Z,14.60
2018-06-11T00:20:08.916Z,14.60
2018-06-11T00:21:12.506Z,14.60
2018-06-11T00:22:16.078Z,14.60
2018-06-11T00:23:19.598Z,14.60
2018-06-11T00:24:23.165Z,14.60
2018-06-11T00:25:26.887Z,14.50
2018-06-11T00:26:30.474Z,14.60
2018-06-11T00:27:34.051Z,14.60
2018-06-11T00:28:37.665Z,14.60
2018-06-11T00:29:41.251Z,14.60
2018-06-11T00:30:44.825Z,14.60
2018-06-11T00:31:48.422Z,14.60
2018-06-11T00:32:51.988Z,14.60
2018-06-11T00:33:55.798Z,14.50
2018-06-11T00:34:59.352Z,14.50
2018-06-11T00:36:02.902Z,14.50
2018-06-11T00:37:06.401Z,14.50
2018-06-11T00:38:09.964Z,14.40
2018-06-11T00:39:13.554Z,14.50
2018-06-11T00:40:17.158Z,14.40
2018-06-11T00:41:20.706Z,14.40
2018-06-11T00:42:24.289Z,14.40
2018-06-11T00:43:27.870Z,14.40
2018-06-11T00:44:31.475Z,14.40
2018-06-11T00:45:35.155Z,14.40
2018-06-11T00:46:38.654Z,14.30
2018-06-11T00:47:42.193Z,14.30
2018-06-11T00:48:45.765Z,14.30
2018-06-11T00:49:49.377Z,14.20
2018-06-11T00:50:52.957Z,14.20
2018-06-11T00:51:56.626Z,14.20
2018-06-11T00:53:00.218Z,14.20
2018-06-11T00:54:03.816Z,14.20
2018-06-11T00:55:07.345Z,14.10
2018-06-11T00:56:10.945Z,14.10
2018-06-11T00:57:14.585Z,14.10
2018-06-11T00:58:18.113Z,14.10
2018-06-11T00:59:21.700Z,14.10
2018-06-11T01:00:25.303Z,14.10
2018-06-11T01:01:28.818Z,14.00
2018-06-11T01:02:32.351Z,14.00
2018-06-11T01:03:35.923Z,14.00
2018-06-11T01:04:39.475Z,14.00
2018-06-11T01:05:43.083Z,14.00
2018-06-11T01:06:46.619Z,13.90
2018-06-11T01:07:50.189Z,13.90
2018-06-11T01:08:53.791Z,13.90
2018-06-11T01:09:57.686Z,13.90
2018-06-11T01:11:01.241Z,13.80
2018-06-11T01:12:04.750Z,13.80
2018-06-11T01:13:08.236Z,13.80
2018-06-11T01:14:11.787Z,13.80
2018-06-11T01:15:15.327Z,13.80
2018-06-11T01:16:18.809Z,13.80
2018-06-11T01:17:22.304Z,13.80
2018-06-11T01:18:25.823Z,13.80
2018-06-11T01:19:29.353Z,13.70
2018-06-11T01:21:36.094Z,13.70
2018-06-11T01:22:39.605Z,13.70
2018-06-11T01:23:43.155Z,13.70
2018-06-11T01:24:46.778Z,13.70
2018-06-11T01:25:50.330Z,13.70
2018-06-11T01:26:53.857Z,13.70
2018-06-11T01:27:57.897Z,13.70
2018-06-11T01:29:01.457Z,13.70
2018-06-11T01:30:04.987Z,13.70
2018-06-11T01:31:08.521Z,13.70
2018-06-11T01:32:12.084Z,13.70
2018-06-11T01:33:15.590Z,13.70
2018-06-11T01:34:19.196Z,13.80
2018-06-11T01:35:22.808Z,13.80
2018-06-11T01:36:26.364Z,13.80
2018-06-11T01:37:29.961Z,13.80
2018-06-11T01:38:33.509Z,13.90
2018-06-11T01:39:37.000Z,14.00
2018-06-11T01:40:40.501Z,14.00
2018-06-11T01:41:44.141Z,14.00
2018-06-11T01:42:47.664Z,14.00
2018-06-11T01:43:51.249Z,14.00
2018-06-11T01:44:54.773Z,14.00
2018-06-11T01:45:58.441Z,14.00
2018-06-11T01:47:02.101Z,14.10
2018-06-11T01:48:05.692Z,14.10
2018-06-11T01:50:12.682Z,14.10
2018-06-11T01:51:16.161Z,14.10
2018-06-11T01:52:19.746Z,14.10
2018-06-11T01:53:23.293Z,14.20
2018-06-11T01:54:26.876Z,14.20
2018-06-11T01:55:30.496Z,14.20
2018-06-11T01:56:34.051Z,14.20
2018-06-11T01:57:37.640Z,14.20
2018-06-11T01:58:41.168Z,14.30
2018-06-11T01:59:44.750Z,14.30
2018-06-11T02:00:48.239Z,14.30
2018-06-11T02:01:51.758Z,14.30
2018-06-11T02:03:58.826Z,14.30
2018-06-11T02:05:02.322Z,14.40
2018-06-11T02:06:05.918Z,14.40
2018-06-11T02:07:09.498Z,14.40
2018-06-11T02:08:13.127Z,14.40
2018-06-11T02:09:16.681Z,14.40
2018-06-11T02:10:20.270Z,14.40
2018-06-11T02:11:23.758Z,14.40
2018-06-11T02:12:27.335Z,14.40
2018-06-11T02:13:30.946Z,14.40
2018-06-11T02:14:34.502Z,14.40
2018-06-11T02:15:38.074Z,14.40
2018-06-11T02:16:41.690Z,14.40
2018-06-11T02:17:45.348Z,14.40
2018-06-11T02:18:48.865Z,14.40
2018-06-11T02:19:52.419Z,14.40
2018-06-11T02:20:56.037Z,14.50
2018-06-11T02:21:59.609Z,14.50
2018-06-11T02:23:03.146Z,14.40
2018-06-11T02:24:06.738Z,14.40
2018-06-11T02:25:10.439Z,14.40
2018-06-11T02:26:14.106Z,14.50
2018-06-11T02:27:17.645Z,14.50
2018-06-11T02:28:21.211Z,14.50
2018-06-11T02:29:24.797Z,14.50
2018-06-11T02:30:28.362Z,14.50
2018-06-11T02:31:31.981Z,14.60
2018-06-11T02:32:35.742Z,14.60
2018-06-11T02:33:39.380Z,14.50
2018-06-11T02:34:42.927Z,14.60
2018-06-11T02:35:46.519Z,14.50
2018-06-11T02:36:50.110Z,14.50
2018-06-11T02:37:53.725Z,14.50
2018-06-11T02:38:57.303Z,14.50
2018-06-11T02:40:01.198Z,14.50
2018-06-11T02:41:04.798Z,14.50
2018-06-11T02:42:08.286Z,14.50
2018-06-11T02:43:12.518Z,14.50
2018-06-11T02:44:16.056Z,14.50
2018-06-11T02:45:19.554Z,14.50
2018-06-11T02:46:23.058Z,14.50
2018-06-11T02:47:26.630Z,14.50
2018-06-11T02:48:30.317Z,14.50
2018-06-11T02:49:33.862Z,14.50
2018-06-11T02:50:37.398Z,14.50
2018-06-11T02:51:40.887Z,14.50
2018-06-11T02:52:44.486Z,14.50
2018-06-11T02:53:48.021Z,14.50
2018-06-11T02:54:51.541Z,14.50
2018-06-11T02:55:55.049Z,14.50
2018-06-11T02:56:58.577Z,14.50
2018-06-11T02:58:02.863Z,14.50
2018-06-11T02:59:06.419Z,14.50
2018-06-11T03:00:10.024Z,14.50
2018-06-11T03:01:13.614Z,14.50
2018-06-11T03:02:17.203Z,14.50
2018-06-11T03:03:20.737Z,14.50
2018-06-11T03:04:24.290Z,14.50
2018-06-11T03:05:27.930Z,14.50
2018-06-11T03:06:31.493Z,14.50
2018-06-11T03:07:35.096Z,14.60
2018-06-11T03:08:38.958Z,14.60
2018-06-11T03:09:42.474Z,14.60
2018-06-11T03:10:46.161Z,14.60
2018-06-11T03:11:49.736Z,14.60
2018-06-11T03:12:53.257Z,14.60
2018-06-11T03:13:56.839Z,14.60
2018-06-11T03:15:00.351Z,14.60
2018-06-11T03:16:03.802Z,14.60
2018-06-11T03:17:07.380Z,14.60
2018-06-11T03:18:11.079Z,14.50
2018-06-11T03:19:14.626Z,14.60
2018-06-11T03:20:18.147Z,14.60
2018-06-11T03:21:21.663Z,14.60
2018-06-11T03:22:25.258Z,14.60
2018-06-11T03:23:28.826Z,14.60
2018-06-11T03:24:32.398Z,14.60
2018-06-11T03:25:35.932Z,14.50
2018-06-11T03:26:39.473Z,14.60
2018-06-11T03:27:42.973Z,14.60
2018-06-11T03:28:46.590Z,14.60
2018-06-11T03:29:50.090Z,14.60
2018-06-11T03:30:53.577Z,14.60
2018-06-11T03:31:57.128Z,14.60
2018-06-11T03:33:00.630Z,14.60
2018-06-11T03:34:04.148Z,14.70
2018-06-11T03:35:07.677Z,14.70
2018-06-11T03:36:11.287Z,14.70
2018-06-11T03:37:14.866Z,14.70
2018-06-11T03:38:18.373Z,14.70
2018-06-11T03:39:21.892Z,14.70
2018-06-11T03:40:25.496Z,14.70
2018-06-11T03:41:29.055Z,14.70
2018-06-11T03:42:32.746Z,14.80
2018-06-11T03:43:36.285Z,14.80
2018-06-11T03:44:39.795Z,14.80
2018-06-11T03:45:43.321Z,14.80
2018-06-11T03:46:46.966Z,14.70
2018-06-11T03:47:50.460Z,14.80
2018-06-11T03:48:53.946Z,14.80
2018-06-11T03:49:57.527Z,14.80
2018-06-11T03:51:01.059Z,14.80
2018-06-11T03:52:04.757Z,14.90
2018-06-11T03:53:08.247Z,14.80
2018-06-11T03:54:12.035Z,14.90
2018-06-11T03:55:15.561Z,14.90
2018-06-11T03:56:19.061Z,14.90
2018-06-11T03:57:22.606Z,14.90
2018-06-11T03:58:26.130Z,14.90
2018-06-11T03:59:29.596Z,14.90
2018-06-11T04:00:33.369Z,14.90
2018-06-11T04:01:36.966Z,15.00
2018-06-11T04:02:40.487Z,14.90
2018-06-11T04:03:43.957Z,15.00
2018-06-11T04:04:47.628Z,15.00
2018-06-11T04:05:51.131Z,15.00
2018-06-11T04:06:54.609Z,15.00
2018-06-11T04:07:58.159Z,14.90
2018-06-11T04:09:01.810Z,14.90
2018-06-11T04:10:05.324Z,15.00
2018-06-11T04:11:09.027Z,15.00
2018-06-11T04:12:12.566Z,15.00
2018-06-11T04:13:16.835Z,15.00
2018-06-11T04:14:20.436Z,15.00
2018-06-11T04:15:23.961Z,15.00
2018-06-11T04:16:27.460Z,15.00
2018-06-11T04:17:31.051Z,15.00
2018-06-11T04:18:34.696Z,15.00
2018-06-11T04:19:38.227Z,15.00
2018-06-11T04:20:41.755Z,15.00
2018-06-11T04:22:48.569Z,15.00
2018-06-11T04:23:52.218Z,15.00
2018-06-11T04:24:55.759Z,15.00
2018-06-11T04:25:59.358Z,14.90
2018-06-11T04:27:02.882Z,15.00
2018-06-11T04:28:06.415Z,15.00
2018-06-11T04:29:09.975Z,15.00
2018-06-11T04:30:13.614Z,15.00
2018-06-11T04:31:17.106Z,15.10
2018-06-11T04:32:21.122Z,15.10
2018-06-11T04:33:24.722Z,15.10
2018-06-11T04:34:28.248Z,15.10
2018-06-11T04:35:31.785Z,15.10
2018-06-11T04:36:35.459Z,15.10
2018-06-11T04:37:38.965Z,15.10
2018-06-11T04:38:42.434Z,15.10
2018-06-11T04:39:45.935Z,15.00
2018-06-11T04:40:49.503Z,15.00
2018-06-11T04:41:53.135Z,14.90
2018-06-11T04:42:56.653Z,14.90
2018-06-11T04:44:00.235Z,14.90
2018-06-11T04:45:03.846Z,14.90
2018-06-11T04:46:07.362Z,14.80
2018-06-11T04:47:11.493Z,14.80
2018-06-11T04:48:15.088Z,14.70
2018-06-11T04:49:18.663Z,14.70
2018-06-11T04:50:22.267Z,14.70
2018-06-11T04:51:25.782Z,14.70
2018-06-11T04:52:29.321Z,14.70
2018-06-11T04:53:32.873Z,14.70
2018-06-11T04:54:36.408Z,14.70
2018-06-11T04:55:39.917Z,14.70
2018-06-11T04:56:43.433Z,14.70
2018-06-11T04:57:47.033Z,14.70
2018-06-11T04:58:50.536Z,14.70
2018-06-11T04:59:54.006Z,14.70
2018-06-11T05:00:57.579Z,14.70
2018-06-11T05:02:01.160Z,14.70
2018-06-11T05:03:04.679Z,14.70
2018-06-11T05:04:09.186Z,14.80
2018-06-11T05:05:12.830Z,14.70
2018-06-11T05:06:16.439Z,14.80
2018-06-11T05:07:20.012Z,14.80
2018-06-11T05:08:23.550Z,14.90
2018-06-11T05:09:27.253Z,14.90
2018-06-11T05:10:30.914Z,14.80
2018-06-11T05:11:34.449Z,14.90
2018-06-11T05:12:38.023Z,14.90
2018-06-11T05:13:41.617Z,15.00
2018-06-11T05:14:45.217Z,15.00
2018-06-11T05:15:48.778Z,15.10
2018-06-11T05:16:52.380Z,15.00
2018-06-11T05:17:55.912Z,15.00
2018-06-11T05:18:59.573Z,15.00
2018-06-11T05:20:03.223Z,14.90
2018-06-11T05:21:06.782Z,14.90
2018-06-11T05:22:10.483Z,14.90
2018-06-11T05:23:14.135Z,14.80
2018-06-11T05:24:17.733Z,14.80
2018-06-11T05:25:22.331Z,14.80
2018-06-11T05:26:25.846Z,14.90
2018-06-11T05:27:29.435Z,14.80
2018-06-11T05:28:33.031Z,14.90
2018-06-11T05:29:36.576Z,14.80
2018-06-11T05:30:40.090Z,14.80
2018-06-11T05:31:43.637Z,14.90
2018-06-11T05:32:47.353Z,15.00
2018-06-11T05:33:51.048Z,15.00
2018-06-11T05:34:54.637Z,15.10
2018-06-11T05:35:58.600Z,15.10
2018-06-11T05:37:03.492Z,15.00
2018-06-11T05:38:07.895Z,15.10
2018-06-11T05:39:11.409Z,15.10
2018-06-11T05:40:14.953Z,15.20
2018-06-11T05:41:18.473Z,15.30
2018-06-11T05:42:21.949Z,15.40
2018-06-11T05:43:25.498Z,15.40
2018-06-11T05:44:28.999Z,15.40
2018-06-11T05:45:32.559Z,15.40
2018-06-11T05:46:36.151Z,15.40
2018-06-11T05:47:39.718Z,15.30
2018-06-11T05:48:43.206Z,15.20
2018-06-11T05:49:46.785Z,15.20
2018-06-11T05:51:53.503Z,15.30
2018-06-11T05:52:57.053Z,15.40
2018-06-11T05:54:00.683Z,15.40
2018-06-11T05:55:04.294Z,15.50
2018-06-11T05:56:08.101Z,15.60
2018-06-11T05:57:11.826Z,15.70
2018-06-11T05:58:15.306Z,15.70
2018-06-11T05:59:18.882Z,15.70
2018-06-11T06:00:22.542Z,15.60
2018-06-11T06:01:26.070Z,15.60
2018-06-11T06:02:29.661Z,15.50
2018-06-11T06:03:33.331Z,15.50
2018-06-11T06:04:36.959Z,15.50
2018-06-11T06:05:40.551Z,15.60
2018-06-11T06:06:44.144Z,15.50
2018-06-11T06:07:47.718Z,15.50
2018-06-11T06:09:54.442Z,15.50
2018-06-11T06:10:58.150Z,15.60
2018-06-11T06:12:01.694Z,15.70
2018-06-11T06:13:05.484Z,15.70
2018-06-11T06:14:09.187Z,15.70
2018-06-11T06:15:12.853Z,15.70
2018-06-11T06:16:16.431Z,15.70
2018-06-11T06:17:20.000Z,15.60
2018-06-11T06:18:23.526Z,15.60
2018-06-11T06:19:27.093Z,15.50
2018-06-11T06:20:30.677Z,15.50
2018-06-11T06:21:34.262Z,15.60
2018-06-11T06:22:37.780Z,15.50
2018-06-11T06:23:41.371Z,15.50
2018-06-11T06:24:45.058Z,15.50
2018-06-11T06:25:48.556Z,15.50
2018-06-11T06:26:52.116Z,15.50
2018-06-11T06:27:55.646Z,15.60
2018-06-11T06:28:59.334Z,15.60
2018-06-11T06:30:02.909Z,15.60
2018-06-11T06:31:06.490Z,15.70
2018-06-11T06:32:10.160Z,15.70
2018-06-11T06:33:13.922Z,15.70
2018-06-11T06:34:17.675Z,15.70
2018-06-11T06:35:21.070Z,15.70
2018-06-11T06:36:24.761Z,15.70
2018-06-11T06:37:28.345Z,15.80
2018-06-11T06:38:31.960Z,15.80
2018-06-11T06:39:35.528Z,16.00
2018-06-11T06:40:39.099Z,16.10
2018-06-11T06:41:42.627Z,16.20
2018-06-11T06:43:49.484Z,16.30
2018-06-11T06:44:53.005Z,16.40
2018-06-11T06:45:56.570Z,16.50
2018-06-11T06:47:00.179Z,16.60
2018-06-11T06:48:03.733Z,16.60
2018-06-11T06:49:07.341Z,16.80
2018-06-11T06:50:12.121Z,16.90
2018-06-11T06:51:15.680Z,17.00
2018-06-11T06:52:19.244Z,17.10
2018-06-11T06:53:22.779Z,17.00
2018-06-11T06:54:26.336Z,17.00
2018-06-11T06:55:29.903Z,17.10
2018-06-11T06:56:33.487Z,17.10
2018-06-11T06:57:37.029Z,17.20
2018-06-11T06:58:40.589Z,17.20
2018-06-11T06:59:44.222Z,17.20
2018-06-11T07:00:47.764Z,17.30
2018-06-11T07:01:51.263Z,17.40
2018-06-11T07:02:54.844Z,17.50
2018-06-11T07:03:58.361Z,17.60
2018-06-11T07:05:01.949Z,17.70
2018-06-11T07:06:05.532Z,17.60
2018-06-11T07:07:09.077Z,17.60
2018-06-11T07:08:12.930Z,17.60
2018-06-11T07:09:16.424Z,17.80
2018-06-11T07:10:19.996Z,17.90
2018-06-11T07:11:23.581Z,18.00
2018-06-11T07:12:27.183Z,18.30
2018-06-11T07:13:30.697Z,19.00
2018-06-11T07:14:34.230Z,19.80
2018-06-11T07:15:37.760Z,20.40
2018-06-11T07:16:41.331Z,20.70
2018-06-11T07:17:44.862Z,20.70
2018-06-11T07:18:48.403Z,20.90
2018-06-11T07:19:51.997Z,20.90
2018-06-11T07:20:55.607Z,20.50
2018-06-11T07:21:59.208Z,20.10
2018-06-11T07:23:02.749Z,20.00
2018-06-11T07:24:06.363Z,20.00
2018-06-11T07:25:10.871Z,20.20
2018-06-11T07:26:14.790Z,20.40
2018-06-11T07:27:18.357Z,20.60
2018-06-11T07:28:21.958Z,20.90
2018-06-11T07:29:25.526Z,21.50
2018-06-11T07:30:29.106Z,21.60
2018-06-11T07:31:32.877Z,21.70
2018-06-11T07:32:36.408Z,22.30
2018-06-11T07:33:39.911Z,22.30
2018-06-11T07:34:43.496Z,22.00
2018-06-11T07:35:47.017Z,22.10
2018-06-11T07:36:50.703Z,22.60
2018-06-11T07:37:54.247Z,23.20
2018-06-11T07:38:57.755Z,23.60
2018-06-11T07:40:01.344Z,24.00
2018-06-11T07:41:05.055Z,24.40
2018-06-11T07:42:08.719Z,24.30
2018-06-11T07:43:12.464Z,24.20
2018-06-11T07:44:16.090Z,24.30
2018-06-11T07:45:19.755Z,24.90
2018-06-11T07:46:23.321Z,25.10
2018-06-11T07:47:26.851Z,25.40
2018-06-11T07:48:30.388Z,25.40
2018-06-11T07:49:33.977Z,26.20
2018-06-11T07:50:37.767Z,26.30
2018-06-11T07:51:41.363Z,26.30
2018-06-11T07:52:44.855Z,26.60
2018-06-11T07:53:48.352Z,27.10
2018-06-11T07:54:51.879Z,27.60
2018-06-11T07:55:55.409Z,27.30
2018-06-11T07:56:58.957Z,26.80
2018-06-11T07:58:02.572Z,26.60
2018-06-11T07:59:06.181Z,26.50
2018-06-11T08:00:09.862Z,26.40
2018-06-11T08:01:13.579Z,26.60
2018-06-11T08:02:17.082Z,26.50
2018-06-11T08:03:20.571Z,26.70
2018-06-11T08:04:24.111Z,26.70
2018-06-11T08:05:27.640Z,26.50
2018-06-11T08:06:31.156Z,26.20
2018-06-11T08:07:34.742Z,25.70
2018-06-11T08:08:38.321Z,25.40
2018-06-11T08:09:41.874Z,25.40
2018-06-11T08:10:45.399Z,25.10
2018-06-11T08:11:48.915Z,25.60
2018-06-11T08:12:52.495Z,25.50
2018-06-11T08:13:55.988Z,25.80
2018-06-11T08:14:59.470Z,26.20
2018-06-11T08:16:03.063Z,26.20
2018-06-11T08:17:06.794Z,26.30
2018-06-11T08:18:10.561Z,26.00
2018-06-11T08:19:14.242Z,26.20
2018-06-11T08:20:17.785Z,25.70
2018-06-11T08:21:21.266Z,25.40
2018-06-11T08:22:24.805Z,25.10
2018-06-11T08:23:28.504Z,24.20
2018-06-11T08:24:32.029Z,24.20
2018-06-11T08:25:35.565Z,24.40
2018-06-11T08:27:42.246Z,24.60
2018-06-11T08:28:45.749Z,24.50
2018-06-11T08:29:49.305Z,24.60
2018-06-11T08:30:52.890Z,24.70
2018-06-11T08:31:56.422Z,24.50
2018-06-11T08:33:00.024Z,24.50
2018-06-11T08:34:03.595Z,24.40
2018-06-11T08:35:07.200Z,24.60
2018-06-11T08:36:11.087Z,25.20
2018-06-11T08:37:14.858Z,25.50
2018-06-11T08:38:18.366Z,25.80
2018-06-11T08:39:21.971Z,25.90
2018-06-11T08:40:25.548Z,26.00
2018-06-11T08:41:29.130Z,26.10
2018-06-11T08:42:33.245Z,26.30
2018-06-11T08:43:36.795Z,26.00
2018-06-11T08:44:40.303Z,25.80
2018-06-11T08:45:43.798Z,26.30
2018-06-11T08:46:47.283Z,26.40
2018-06-11T08:47:50.855Z,26.40
2018-06-11T08:48:54.395Z,26.00
2018-06-11T08:49:57.998Z,25.80
2018-06-11T08:51:01.527Z,25.60
2018-06-11T08:52:05.191Z,25.60
2018-06-11T08:53:08.796Z,25.60
2018-06-11T08:54:12.807Z,25.60
2018-06-11T08:55:16.381Z,25.10
2018-06-11T08:56:20.483Z,24.60
2018-06-11T08:57:23.991Z,24.30
2018-06-11T08:58:27.494Z,24.60
2018-06-11T08:59:31.012Z,24.50
2018-06-11T09:00:34.563Z,24.60
2018-06-11T09:01:38.073Z,24.50
2018-06-11T09:02:41.658Z,24.40
2018-06-11T09:03:45.206Z,24.30
2018-06-11T09:04:48.822Z,24.50
2018-06-11T09:05:52.390Z,24.30
2018-06-11T09:06:55.922Z,24.60
2018-06-11T09:07:59.728Z,24.70
2018-06-11T09:09:03.517Z,24.90
2018-06-11T09:10:07.305Z,25.00
2018-06-11T09:12:14.280Z,24.60
2018-06-11T09:13:17.786Z,24.80
2018-06-11T09:14:21.355Z,25.00
2018-06-11T09:15:24.943Z,25.00
2018-06-11T09:16:28.434Z,24.90
2018-06-11T09:17:31.938Z,24.70
2018-06-11T09:18:35.490Z,24.80
2018-06-11T09:19:38.986Z,24.90
2018-06-11T09:20:42.491Z,24.40
2018-06-11T09:21:46.091Z,24.80
2018-06-11T09:22:49.605Z,25.00
2018-06-11T09:23:53.130Z,24.80
2018-06-11T09:24:56.625Z,25.00
2018-06-11T09:26:00.123Z,24.90
2018-06-11T09:27:03.708Z,24.90
2018-06-11T09:28:07.315Z,24.50
2018-06-11T09:29:10.953Z,24.60
2018-06-11T09:30:14.628Z,24.50
2018-06-11T09:31:18.145Z,24.60
2018-06-11T09:32:21.798Z,24.90
2018-06-11T09:33:25.280Z,24.30
2018-06-11T09:34:28.763Z,24.50
2018-06-11T09:35:32.368Z,24.10
2018-06-11T09:36:35.950Z,23.50
2018-06-11T09:37:39.465Z,23.20
2018-06-11T09:38:43.038Z,23.30
2018-06-11T09:39:46.625Z,23.40
2018-06-11T09:40:50.159Z,22.80
2018-06-11T09:41:53.649Z,22.50
2018-06-11T09:42:57.169Z,22.80
2018-06-11T09:44:00.821Z,22.90
2018-06-11T09:45:04.378Z,23.00
2018-06-11T09:46:08.054Z,22.90
2018-06-11T09:47:11.682Z,22.80
2018-06-11T09:48:15.283Z,22.60
2018-06-11T09:49:18.843Z,22.40
2018-06-11T09:50:22.392Z,22.00
2018-06-11T09:51:25.916Z,22.00
2018-06-11T09:52:29.409Z,21.90
2018-06-11T09:53:32.907Z,22.00
2018-06-11T09:54:36.466Z,22.00
2018-06-11T09:55:39.986Z,22.20
2018-06-11T09:56:43.469Z,22.40
2018-06-11T09:57:46.996Z,22.40
2018-06-11T09:58:50.505Z,22.50
2018-06-11T09:59:54.050Z,22.60
2018-06-11T10:00:57.618Z,22.70
2018-06-11T10:02:01.150Z,23.10
2018-06-11T10:03:05.247Z,23.40
2018-06-11T10:04:08.763Z,23.60
2018-06-11T10:05:12.411Z,23.80
2018-06-11T10:06:15.922Z,24.00
2018-06-11T10:07:19.417Z,23.80
2018-06-11T10:08:22.937Z,23.40
2018-06-11T10:09:26.545Z,23.50
2018-06-11T10:10:30.116Z,23.80
2018-06-11T10:11:33.764Z,23.50
2018-06-11T10:12:37.367Z,23.50
2018-06-11T10:13:40.982Z,23.30
2018-06-11T10:14:44.528Z,23.70
2018-06-11T10:15:48.136Z,23.30
2018-06-11T10:16:51.694Z,23.20
2018-06-11T10:17:55.236Z,22.90
2018-06-11T10:18:58.778Z,22.70
2018-06-11T10:21:05.586Z,22.40
2018-06-11T10:22:09.340Z,22.30
2018-06-11T10:23:13.095Z,22.10
2018-06-11T10:24:16.651Z,22.00
2018-06-11T10:25:20.162Z,22.00
2018-06-11T10:26:23.693Z,22.20
2018-06-11T10:27:27.239Z,22.40
2018-06-11T10:28:30.746Z,22.50
2018-06-11T10:29:34.288Z,22.70
2018-06-11T10:30:37.789Z,22.70
2018-06-11T10:31:41.383Z,22.70
2018-06-11T10:32:44.892Z,22.40
2018-06-11T10:33:48.411Z,22.30
2018-06-11T10:34:51.997Z,22.20
2018-06-11T10:35:55.539Z,22.00
2018-06-11T10:36:59.096Z,22.10
2018-06-11T10:38:02.625Z,22.00
2018-06-11T10:39:07.962Z,21.90
2018-06-11T10:40:11.815Z,21.80
2018-06-11T10:41:15.430Z,21.50
2018-06-11T10:42:18.952Z,21.40
2018-06-11T10:43:22.474Z,21.30
2018-06-11T10:44:25.984Z,21.40
2018-06-11T10:45:29.520Z,21.40
2018-06-11T10:46:33.048Z,21.30
2018-06-11T10:47:36.672Z,21.10
2018-06-11T10:48:40.687Z,21.10
2018-06-11T10:49:44.201Z,21.10
2018-06-11T10:50:47.754Z,20.80
2018-06-11T10:51:51.399Z,20.60
2018-06-11T10:52:55.050Z,20.60
2018-06-11T10:53:58.544Z,20.50
2018-06-11T10:55:02.107Z,20.50
2018-06-11T10:56:05.709Z,20.50
2018-06-11T10:57:09.304Z,20.50
2018-06-11T10:58:12.941Z,20.60
2018-06-11T10:59:16.467Z,20.70
2018-06-11T11:00:19.958Z,20.90
2018-06-11T11:01:23.453Z,20.90
2018-06-11T11:02:26.977Z,20.90
2018-06-11T11:03:30.500Z,21.00
2018-06-11T11:04:34.063Z,21.00
2018-06-11T11:05:37.573Z,21.10
2018-06-11T11:06:41.191Z,21.00
2018-06-11T11:07:44.709Z,21.00
2018-06-11T11:08:48.299Z,20.90
2018-06-11T11:09:51.839Z,20.80
2018-06-11T11:10:55.538Z,20.60
2018-06-11T11:11:59.054Z,20.60
2018-06-11T11:13:02.586Z,20.60
2018-06-11T11:14:06.114Z,20.70
2018-06-11T11:15:09.658Z,20.70
2018-06-11T11:16:13.347Z,20.60
2018-06-11T11:17:16.881Z,20.60
2018-06-11T11:18:20.409Z,20.50
2018-06-11T11:19:23.918Z,20.60
2018-06-11T11:20:27.440Z,20.60
2018-06-11T11:21:31.044Z,20.80
2018-06-11T11:22:34.646Z,20.80
2018-06-11T11:23:38.265Z,20.70
2018-06-11T11:24:41.886Z,20.70
2018-06-11T11:25:45.434Z,20.70
2018-06-11T11:26:48.928Z,20.80
2018-06-11T11:27:52.430Z,20.80
2018-06-11T11:28:55.993Z,20.90
2018-06-11T11:29:59.507Z,20.90
2018-06-11T11:31:03.083Z,20.90
2018-06-11T11:32:06.654Z,21.00
2018-06-11T11:33:10.357Z,21.00
2018-06-11T11:34:14.044Z,20.80
2018-06-11T11:35:17.560Z,20.90
2018-06-11T11:36:21.131Z,20.90
2018-06-11T11:37:24.708Z,21.00
2018-06-11T11:39:31.693Z,20.90
2018-06-11T11:40:35.210Z,20.90
2018-06-11T11:41:38.858Z,20.80
2018-06-11T11:42:43.047Z,20.80
2018-06-11T11:43:46.575Z,20.80
2018-06-11T11:44:50.081Z,20.80
2018-06-11T11:45:53.641Z,20.80
2018-06-11T11:46:57.191Z,20.70
2018-06-11T11:48:00.853Z,20.80
2018-06-11T11:49:04.409Z,20.80
2018-06-11T11:50:07.958Z,20.90
2018-06-11T11:51:11.850Z,20.90
2018-06-11T11:52:15.361Z,21.00
2018-06-11T11:53:18.958Z,21.00
2018-06-11T11:54:22.430Z,21.00
2018-06-11T11:55:25.954Z,20.90
2018-06-11T11:56:29.480Z,20.90
2018-06-11T11:57:33.020Z,20.90
2018-06-11T11:58:36.555Z,20.90
2018-06-11T11:59:40.133Z,20.90
2018-06-11T12:00:43.820Z,20.90
2018-06-11T12:02:50.595Z,20.90
2018-06-11T12:03:54.128Z,20.80
2018-06-11T12:04:57.717Z,20.90
2018-06-11T12:06:01.291Z,20.80
2018-06-11T12:07:04.916Z,20.80
2018-06-11T12:08:08.446Z,20.80
2018-06-11T12:09:12.068Z,20.90
2018-06-11T12:10:15.661Z,20.90
2018-06-11T12:11:19.190Z,20.80
2018-06-11T12:12:22.731Z,20.80
2018-06-11T12:13:26.309Z,20.80
2018-06-11T12:14:29.884Z,20.80
2018-06-11T12:15:33.537Z,20.90
2018-06-11T12:16:37.078Z,20.90
2018-06-11T12:17:40.594Z,20.90
2018-06-11T12:18:44.083Z,21.00
2018-06-11T12:19:47.559Z,21.00
2018-06-11T12:20:51.059Z,21.00
2018-06-11T12:21:54.606Z,21.00
2018-06-11T12:24:01.363Z,20.90
2018-06-11T12:25:04.925Z,20.90
2018-06-11T12:26:08.368Z,20.90
2018-06-11T12:27:12.038Z,20.90
2018-06-11T12:28:15.554Z,20.90
2018-06-11T12:29:19.084Z,20.90
2018-06-11T12:30:22.596Z,20.90
2018-06-11T12:31:26.133Z,20.90
2018-06-11T12:32:29.671Z,20.90
2018-06-11T12:33:33.294Z,21.00
2018-06-11T12:34:36.895Z,21.00
2018-06-11T12:35:40.465Z,21.10
2018-06-11T12:36:44.102Z,21.10
2018-06-11T12:37:47.585Z,21.00
2018-06-11T12:38:51.185Z,20.90
2018-06-11T12:39:54.768Z,21.00
2018-06-11T12:40:58.296Z,21.00
2018-06-11T12:42:01.761Z,21.10
2018-06-11T12:43:05.320Z,21.00
2018-06-11T12:44:08.833Z,21.00
2018-06-11T12:45:12.668Z,21.00
2018-06-11T12:46:16.294Z,21.00
2018-06-11T12:47:19.877Z,20.90
2018-06-11T12:48:23.356Z,21.00
2018-06-11T12:49:26.870Z,21.00
2018-06-11T12:50:30.448Z,21.10
2018-06-11T12:51:34.333Z,21.10
2018-06-11T12:52:37.822Z,21.10
2018-06-11T12:54:44.690Z,21.30
2018-06-11T12:56:51.464Z,21.40
2018-06-11T12:57:55.019Z,21.30
2018-06-11T12:58:58.554Z,21.20
2018-06-11T13:00:02.184Z,21.20
2018-06-11T13:01:05.790Z,21.20
2018-06-11T13:02:09.383Z,21.30
2018-06-11T13:03:13.102Z,21.40
2018-06-11T13:04:16.622Z,21.50
2018-06-11T13:05:20.155Z,21.50
2018-06-11T13:06:23.692Z,21.50
2018-06-11T13:07:27.810Z,21.50
2018-06-11T13:08:31.343Z,21.50
2018-06-11T13:09:34.933Z,21.50
2018-06-11T13:10:38.518Z,21.40
2018-06-11T13:11:42.024Z,21.40
2018-06-11T13:12:45.592Z,21.40
2018-06-11T13:13:49.124Z,21.40
2018-06-11T13:14:52.687Z,21.40
2018-06-11T13:15:56.229Z,21.40
2018-06-11T13:16:59.719Z,21.40
2018-06-11T13:18:03.606Z,21.50
2018-06-11T13:19:07.212Z,21.50
2018-06-11T13:20:11.522Z,21.50
2018-06-11T13:21:15.133Z,21.40
2018-06-11T13:22:18.721Z,21.30
2018-06-11T13:23:22.260Z,21.30
2018-06-11T13:24:25.813Z,21.30
2018-06-11T13:25:29.361Z,21.30
2018-06-11T13:26:32.858Z,21.30
2018-06-11T13:27:36.425Z,21.30
2018-06-11T13:28:39.918Z,21.30
2018-06-11T13:29:43.656Z,21.30
2018-06-11T13:30:47.191Z,21.40
2018-06-11T13:31:50.719Z,21.50
2018-06-11T13:32:54.268Z,21.50
2018-06-11T13:33:57.877Z,21.50
2018-06-11T13:35:01.466Z,21.60
2018-06-11T13:37:08.204Z,21.60
2018-06-11T13:38:12.088Z,21.60
2018-06-11T13:39:15.611Z,21.60
2018-06-11T13:40:19.119Z,21.60
2018-06-11T13:41:22.670Z,21.50
2018-06-11T13:42:26.220Z,21.70
2018-06-11T13:43:29.841Z,21.80
2018-06-11T13:44:33.749Z,21.70
2018-06-11T13:45:37.405Z,21.70
2018-06-11T13:46:40.860Z,21.80
2018-06-11T13:47:44.402Z,21.90
2018-06-11T13:48:47.956Z,21.80
2018-06-11T13:49:51.461Z,21.80
2018-06-11T13:50:55.020Z,21.70
2018-06-11T13:51:58.606Z,21.70
2018-06-11T13:53:02.170Z,21.60
2018-06-11T13:54:05.836Z,21.60
2018-06-11T13:55:09.406Z,21.60